EDT,Max TemperatureF,Mean TemperatureF,Min TemperatureF,Max Dew PointF,MeanDew PointF,Min DewpointF,Max Humidity, Mean Humidity, Min Humidity, Max Sea Level PressureIn, Mean Sea Level PressureIn, Min Sea Level PressureIn, Max VisibilityMiles, Mean VisibilityMiles, Min VisibilityMiles, Max Wind SpeedMPH, Mean Wind SpeedMPH, Max Gust SpeedMPH,PrecipitationIn, CloudCover, Events, WindDirDegrees
2013-10-1,73,62,51,61,57,52,100,85,57,30.23,30.18,30.14,10,10,5,12,3,17,0.00,3,,228
2013-10-2,78,66,55,66,59,55,100,85,51,30.27,30.21,30.18,10,9,1,9,3,,0.00,2,,247
2013-10-3,78,68,59,64,61,59,100,84,54,30.23,30.20,30.16,10,10,7,8,2,,0.00,2,,191
2013-10-4,78,68,59,68,61,59,100,84,54,30.27,30.22,30.19,10,9,3,8,3,,0.00,2,,203
2013-10-5,80,70,59,64,62,59,100,80,54,30.24,30.19,30.12,10,10,7,9,3,,0.00,2,,192
2013-10-6,78,69,60,63,61,57,100,75,51,30.12,30.02,29.91,10,10,10,17,7,24,0.00,1,Rain,184
2013-10-7,66,57,48,64,50,43,100,81,52,30.16,30.01,29.91,10,10,5,12,7,20,0.31,4,Rain,298
2013-10-8,68,55,42,50,46,43,100,77,43,30.24,30.20,30.15,10,10,10,12,4,,0.00,0,,34
2013-10-9,71,58,44,50,46,39,100,67,43,30.28,30.23,30.20,10,10,10,7,2,,0.00,0,,115
2013-10-10,68,57,46,50,46,41,87,66,49,30.21,30.17,30.12,10,10,10,10,2,,0.00,3,,351
2013-10-11,71,58,46,54,48,43,100,66,38,30.14,30.10,30.07,10,10,10,13,2,21,0.00,3,,331
2013-10-12,68,60,53,63,58,54,100,91,73,30.20,30.13,30.08,10,10,5,7,2,,0.00,6,,3
2013-10-13,69,62,55,64,60,55,100,96,73,30.31,30.26,30.20,10,8,0,9,2,,0.13,7,Fog-Rain,1
2013-10-14,71,64,57,63,60,57,100,91,64,30.33,30.27,30.22,10,7,0,7,4,,0.01,6,Fog,27
2013-10-15,71,63,55,59,56,55,100,83,60,30.24,30.17,30.09,10,10,10,8,3,,0.00,1,,171
2013-10-16,62,60,57,61,57,55,100,90,82,30.10,30.06,30.03,10,10,10,13,6,16,0.00,7,Rain,208
2013-10-17,62,54,46,63,57,46,100,100,100,30.04,29.97,29.89,10,8,0,12,6,16,0.05,8,Fog-Rain,238
2013-10-18,60,50,39,48,44,39,100,84,51,30.10,30.04,30.01,10,8,0,6,0,,0.00,3,Fog,339
2013-10-19,59,50,42,52,46,41,100,91,63,30.03,29.96,29.91,10,10,7,18,3,29,0.00,6,Rain,246
2013-10-20,59,46,32,43,36,32,100,72,39,30.12,30.07,30.03,10,9,2,7,2,,0.00,1,,333
2013-10-21,62,52,42,45,40,34,93,65,45,30.14,30.07,30.02,10,10,10,18,6,23,0.00,0,,202
2013-10-22,51,48,44,50,46,41,100,90,67,30.03,29.96,29.85,10,6,0,9,4,,0.02,7,Fog-Rain,291
2013-10-23,46,39,32,46,39,32,100,97,76,30.04,29.89,29.77,10,9,0,18,6,29,0.05,8,Fog-Rain-Snow,257
2013-10-24,41,36,30,39,34,30,100,95,70,30.20,30.11,30.04,10,9,2,13,5,17,0.12,7,Rain-Snow,252
2013-10-25,37,32,28,34,30,27,100,92,70,30.39,30.32,30.21,10,9,0,9,5,16,0.00,6,Fog,303
2013-10-26,50,38,26,32,29,23,100,70,43,30.30,30.17,30.06,10,10,10,20,6,29,0.00,3,,212
2013-10-27,60,50,39,46,40,34,87,69,48,30.15,30.10,30.07,10,10,10,15,7,20,0.00,4,,228
2013-10-28,59,54,50,55,51,46,100,93,77,30.30,30.23,30.15,10,9,3,12,7,17,0.05,8,Rain,230
2013-10-29,62,56,51,55,51,48,100,82,63,30.37,30.31,30.28,10,9,3,9,3,,0.00,7,Rain,210
2013-10-30,68,60,53,61,55,46,100,85,67,30.30,30.25,30.20,10,9,4,18,8,25,0.24,7,Rain,209
2013-10-31,64,62,59,55,53,52,82,74,64,30.20,30.00,29.70,10,10,10,28,10,40,0.01,4,Rain,184